Terminal Aerodrome Forecast
Issued by NWS Cleveland, OH

Home | Current Version | Previous Version | Graphics & Text | Print | Product List | Glossary On
Versions: 1 2 3 4 5 6 7 8 9 10 11 12 13 14 15 16 17 18 19 20 21
000
FTUS41 KCLE 252300
TAFCAK
TAF
KCAK 252325Z 2600/2624 14005KT P6SM SCT040
     FM260200 15004KT P6SM SKC
     FM260500 17004KT P6SM BKN250
      TEMPO 2609/2613 5SM BR
     FM261400 20006KT P6SM SCT250
     FM261800 24008KT P6SM SCT035 BKN250=

USA.gov is the U.S. government's official web portal to all federal, state and local government web resources and services.